Disclaimer

Please do not use the information listed here in-flight or in-navigation, as they are not provided to us by the airports but are provided by volunteers, so they might be outdated.

Search


Regions


Airport information page

No radio frequency information is available.

Airport informations:
Latitude: 58° 18' 26.86" N
Longitude: 026° 41' 25.54" E
Elevation: 219 feet - 67 meters
Operating hours: N/A
Operating agency: Civil government, landing fees and diplomatic clearance may be required
Timezone: UTC+2(+3DT) - Last Sunday in March to last Sunday in October
Fuel: Jet A1, without icing nhibitor.

100/130 MIL Spec, low lead, aviation gasoline (BLUE)

Runway information:
08/26 - 4524 x 115 feet< - >1379 x 35 meters

Recent METARs:
EETU 160850Z AUTO 12007KT 9999 OVC006/// M06/M07 Q1033
EETU 160850Z AUTO 12007KT 9999 OVC006/// M06/M07 Q1033
EETU 160950Z AUTO 11007KT 9999 OVC005/// M06/M06 Q1033

Airport on the map: